This is the latest recevied weather packets stored in our database for station/object N0EDB-13. If no packets are shown the sender has not sent any weather packets the latest 10 day(s).
| Time | Temp. | Humidity | Pressure | Rain* | Wind** | Luminosity | Snow |
|---|---|---|---|---|---|---|---|
| 1777693272 | 7.78° C | 38% | 1515.1 hPa | 0 mm | - | 0 W/m² | - |
| 1777692971 | 7.78° C | 39% | 1515.8 hPa | 0 mm | - | 0 W/m² | - |
| 1777692670 | 7.78° C | 40% | 1516.2 hPa | 0 mm | - | 0 W/m² | - |
| 1777692370 | 7.78° C | 41% | 1514.9 hPa | 0 mm | - | 0 W/m² | - |
| 1777692070 | 8.89° C | 39% | 1512.3 hPa | 0 mm | - | 0 W/m² | - |
| 1777691769 | 10° C | 37% | 1509.6 hPa | 0 mm | - | 0 W/m² | - |
| 1777691468 | 10° C | 33% | 1508.2 hPa | 0 mm | - | 0 W/m² | - |
| 1777691167 | 10.56° C | 32% | 1507.8 hPa | 0 mm | - | 0 W/m² | - |
| 1777690866 | 10.56° C | 33% | 1507.2 hPa | 0 mm | - | 0 W/m² | - |
| 1777690566 | 10.56° C | 31% | 1506.9 hPa | 0 mm | - | 0 W/m² | - |
| 1777690265 | 10.56° C | 32% | 1507.4 hPa | 0 mm | - | 0 W/m² | - |
| 1777689964 | 10.56° C | 33% | 1506.8 hPa | 0 mm | - | 0 W/m² | - |
| 1777689663 | 10.56° C | 31% | 1506 hPa | 0 mm | - | 0 W/m² | - |
| 1777689363 | 11.11° C | 32% | 1504.9 hPa | 0 mm | - | 0 W/m² | - |
| 1777689062 | 11.67° C | 31% | 1503.2 hPa | 0 mm | - | 0 W/m² | - |
| 1777688761 | 12.22° C | 30% | 1501.2 hPa | 0 mm | - | 0 W/m² | - |
| 1777688461 | 12.22° C | 28% | 1500.5 hPa | 0 mm | - | 0 W/m² | - |
| 1777688161 | 12.78° C | 28% | 1499.6 hPa | 0 mm | - | 0 W/m² | - |
| 1777687860 | 13.33° C | 27% | 1498.3 hPa | 0 mm | - | 1 W/m² | - |
| 1777687560 | 13.33° C | 27% | 1497 hPa | 0 mm | - | 1 W/m² | - |
| 1777687260 | 13.89° C | 26% | 1495.6 hPa | 0 mm | - | 2 W/m² | - |
| 1777686958 | 14.44° C | 25% | 1494.5 hPa | 0 mm | - | 4 W/m² | - |
| 1777686658 | 14.44° C | 25% | 1493.7 hPa | 0 mm | - | 7 W/m² | - |
| 1777686357 | 15° C | 24% | 1493.1 hPa | 0 mm | - | 9 W/m² | - |
| 1777686056 | 15° C | 24% | 1492.5 hPa | 0 mm | - | 13 W/m² | - |
* Rain latest hour (hover to see other rain measurements)
** Current wind speed in m/s (hover to see current wind gust speed)